sensor_id;sensor_type;location;lat;lon;timestamp;temperature;humidity
12708;DHT22;6418;50.824;4.718;2024-02-26T00:02:08;6.50;99.90
12708;DHT22;6418;50.824;4.718;2024-02-26T00:04:35;6.60;99.90
12708;DHT22;6418;50.824;4.718;2024-02-26T00:07:02;6.60;99.90
12708;DHT22;6418;50.824;4.718;2024-02-26T00:09:29;6.50;99.90
12708;DHT22;6418;50.824;4.718;2024-02-26T00:11:56;6.60;99.90
12708;DHT22;6418;50.824;4.718;2024-02-26T00:14:23;6.50;99.90
12708;DHT22;6418;50.824;4.718;2024-02-26T00:16:50;6.60;99.90
12708;DHT22;6418;50.824;4.718;2024-02-26T00:19:18;6.50;99.90
12708;DHT22;6418;50.824;4.718;2024-02-26T00:21:45;6.50;99.90
12708;DHT22;6418;50.824;4.718;2024-02-26T00:24:12;6.50;99.90
12708;DHT22;6418;50.824;4.718;2024-02-26T00:26:39;6.50;99.90
12708;DHT22;6418;50.824;4.718;2024-02-26T00:29:06;6.50;99.90
12708;DHT22;6418;50.824;4.718;2024-02-26T00:31:33;6.50;99.90
12708;DHT22;6418;50.824;4.718;2024-02-26T00:34:00;6.40;99.90
12708;DHT22;6418;50.824;4.718;2024-02-26T00:36:28;6.50;99.90
12708;DHT22;6418;50.824;4.718;2024-02-26T00:38:55;6.40;99.90
12708;DHT22;6418;50.824;4.718;2024-02-26T00:41:22;6.40;99.90
12708;DHT22;6418;50.824;4.718;2024-02-26T00:43:49;6.50;99.90
12708;DHT22;6418;50.824;4.718;2024-02-26T00:46:16;6.40;99.90
12708;DHT22;6418;50.824;4.718;2024-02-26T00:48:43;6.40;99.90
12708;DHT22;6418;50.824;4.718;2024-02-26T00:51:10;6.40;99.90
12708;DHT22;6418;50.824;4.718;2024-02-26T00:53:38;6.40;99.90
12708;DHT22;6418;50.824;4.718;2024-02-26T00:56:05;6.40;99.90
12708;DHT22;6418;50.824;4.718;2024-02-26T00:58:32;6.40;99.90
12708;DHT22;6418;50.824;4.718;2024-02-26T01:00:59;6.40;99.90
12708;DHT22;6418;50.824;4.718;2024-02-26T01:03:26;6.40;99.90
12708;DHT22;6418;50.824;4.718;2024-02-26T01:05:53;6.40;99.90
12708;DHT22;6418;50.824;4.718;2024-02-26T01:08:20;6.30;99.90
12708;DHT22;6418;50.824;4.718;2024-02-26T01:10:48;6.40;99.90
12708;DHT22;6418;50.824;4.718;2024-02-26T01:13:15;6.30;99.90
12708;DHT22;6418;50.824;4.718;2024-02-26T01:15:41;6.30;99.90
12708;DHT22;6418;50.824;4.718;2024-02-26T01:18:09;6.30;99.90
12708;DHT22;6418;50.824;4.718;2024-02-26T01:20:36;6.30;99.90
12708;DHT22;6418;50.824;4.718;2024-02-26T01:23:03;6.30;99.90
12708;DHT22;6418;50.824;4.718;2024-02-26T01:25:30;6.20;99.90
12708;DHT22;6418;50.824;4.718;2024-02-26T01:27:59;6.30;99.90
12708;DHT22;6418;50.824;4.718;2024-02-26T01:30:25;6.20;99.90
12708;DHT22;6418;50.824;4.718;2024-02-26T01:32:52;6.20;99.90
12708;DHT22;6418;50.824;4.718;2024-02-26T01:35:19;6.20;99.90
12708;DHT22;6418;50.824;4.718;2024-02-26T01:37:46;6.10;99.90
12708;DHT22;6418;50.824;4.718;2024-02-26T01:40:13;6.20;99.90
12708;DHT22;6418;50.824;4.718;2024-02-26T01:42:43;6.20;99.90
12708;DHT22;6418;50.824;4.718;2024-02-26T01:45:15;6.20;99.90
12708;DHT22;6418;50.824;4.718;2024-02-26T01:47:48;6.20;99.90
12708;DHT22;6418;50.824;4.718;2024-02-26T01:50:16;6.20;99.90
12708;DHT22;6418;50.824;4.718;2024-02-26T01:52:43;6.20;99.90
12708;DHT22;6418;50.824;4.718;2024-02-26T01:55:11;6.20;99.90
12708;DHT22;6418;50.824;4.718;2024-02-26T01:57:39;6.20;99.90
12708;DHT22;6418;50.824;4.718;2024-02-26T02:00:07;6.20;99.90
12708;DHT22;6418;50.824;4.718;2024-02-26T02:02:36;6.20;99.90
12708;DHT22;6418;50.824;4.718;2024-02-26T02:05:05;6.20;99.90
12708;DHT22;6418;50.824;4.718;2024-02-26T02:07:32;6.20;99.90
12708;DHT22;6418;50.824;4.718;2024-02-26T02:09:59;6.20;99.90
12708;DHT22;6418;50.824;4.718;2024-02-26T02:12:27;6.20;99.90
12708;DHT22;6418;50.824;4.718;2024-02-26T02:14:54;6.20;99.90
12708;DHT22;6418;50.824;4.718;2024-02-26T02:17:21;6.20;99.90
12708;DHT22;6418;50.824;4.718;2024-02-26T02:19:49;6.20;99.90
12708;DHT22;6418;50.824;4.718;2024-02-26T02:22:18;6.20;99.90
12708;DHT22;6418;50.824;4.718;2024-02-26T02:24:45;6.20;99.90
12708;DHT22;6418;50.824;4.718;2024-02-26T02:27:12;6.20;99.90
12708;DHT22;6418;50.824;4.718;2024-02-26T02:29:39;6.20;99.90
12708;DHT22;6418;50.824;4.718;2024-02-26T02:32:06;6.20;99.90
12708;DHT22;6418;50.824;4.718;2024-02-26T02:34:33;6.10;99.90
12708;DHT22;6418;50.824;4.718;2024-02-26T02:37:00;6.20;99.90
12708;DHT22;6418;50.824;4.718;2024-02-26T02:39:29;6.20;99.90
12708;DHT22;6418;50.824;4.718;2024-02-26T02:41:55;6.20;99.90
12708;DHT22;6418;50.824;4.718;2024-02-26T02:44:22;6.20;99.90
12708;DHT22;6418;50.824;4.718;2024-02-26T02:46:49;6.10;99.90
12708;DHT22;6418;50.824;4.718;2024-02-26T02:49:19;6.10;99.90
12708;DHT22;6418;50.824;4.718;2024-02-26T02:51:45;6.10;99.90
12708;DHT22;6418;50.824;4.718;2024-02-26T02:54:12;6.20;99.90
12708;DHT22;6418;50.824;4.718;2024-02-26T02:56:41;6.20;99.90
12708;DHT22;6418;50.824;4.718;2024-02-26T02:59:07;6.20;99.90
12708;DHT22;6418;50.824;4.718;2024-02-26T03:01:34;6.10;99.90
12708;DHT22;6418;50.824;4.718;2024-02-26T03:04:01;6.20;99.90
12708;DHT22;6418;50.824;4.718;2024-02-26T03:06:28;6.10;99.90
12708;DHT22;6418;50.824;4.718;2024-02-26T03:08:55;6.10;99.90
12708;DHT22;6418;50.824;4.718;2024-02-26T03:11:22;6.10;99.90
12708;DHT22;6418;50.824;4.718;2024-02-26T03:13:50;6.10;99.90
12708;DHT22;6418;50.824;4.718;2024-02-26T03:16:17;6.10;99.90
12708;DHT22;6418;50.824;4.718;2024-02-26T03:18:44;6.10;99.90
12708;DHT22;6418;50.824;4.718;2024-02-26T03:21:11;6.10;99.90
12708;DHT22;6418;50.824;4.718;2024-02-26T03:23:38;6.10;99.90
12708;DHT22;6418;50.824;4.718;2024-02-26T03:26:05;6.00;99.90
12708;DHT22;6418;50.824;4.718;2024-02-26T03:28:32;6.10;99.90
12708;DHT22;6418;50.824;4.718;2024-02-26T03:31:01;6.10;99.90
12708;DHT22;6418;50.824;4.718;2024-02-26T03:33:28;6.10;99.90
12708;DHT22;6418;50.824;4.718;2024-02-26T03:35:55;6.10;99.90
12708;DHT22;6418;50.824;4.718;2024-02-26T03:38:22;6.10;99.90
12708;DHT22;6418;50.824;4.718;2024-02-26T03:40:48;6.10;99.90
12708;DHT22;6418;50.824;4.718;2024-02-26T03:43:16;6.10;99.90
12708;DHT22;6418;50.824;4.718;2024-02-26T03:45:43;6.10;99.90
12708;DHT22;6418;50.824;4.718;2024-02-26T03:48:11;6.10;99.90
12708;DHT22;6418;50.824;4.718;2024-02-26T03:50:38;6.10;99.90
12708;DHT22;6418;50.824;4.718;2024-02-26T03:53:05;6.10;99.90
12708;DHT22;6418;50.824;4.718;2024-02-26T03:55:34;6.00;99.90
12708;DHT22;6418;50.824;4.718;2024-02-26T03:58:01;6.00;99.90
12708;DHT22;6418;50.824;4.718;2024-02-26T04:00:28;6.00;99.90
12708;DHT22;6418;50.824;4.718;2024-02-26T04:02:55;6.00;99.90
12708;DHT22;6418;50.824;4.718;2024-02-26T04:05:24;6.00;99.90
12708;DHT22;6418;50.824;4.718;2024-02-26T04:07:50;6.10;99.90
12708;DHT22;6418;50.824;4.718;2024-02-26T04:10:17;6.00;99.90
12708;DHT22;6418;50.824;4.718;2024-02-26T04:12:44;6.00;99.90
12708;DHT22;6418;50.824;4.718;2024-02-26T04:15:11;6.00;99.90
12708;DHT22;6418;50.824;4.718;2024-02-26T04:17:39;6.00;99.90
12708;DHT22;6418;50.824;4.718;2024-02-26T04:20:07;6.00;99.90
12708;DHT22;6418;50.824;4.718;2024-02-26T04:22:36;6.00;99.90
12708;DHT22;6418;50.824;4.718;2024-02-26T04:25:04;6.00;99.90
12708;DHT22;6418;50.824;4.718;2024-02-26T04:27:30;6.00;99.90
12708;DHT22;6418;50.824;4.718;2024-02-26T04:29:57;5.90;99.90
12708;DHT22;6418;50.824;4.718;2024-02-26T04:32:24;5.90;99.90
12708;DHT22;6418;50.824;4.718;2024-02-26T04:34:51;6.00;99.90
12708;DHT22;6418;50.824;4.718;2024-02-26T04:37:18;6.00;99.90
12708;DHT22;6418;50.824;4.718;2024-02-26T04:39:47;5.90;99.90
12708;DHT22;6418;50.824;4.718;2024-02-26T04:42:13;6.00;99.90
12708;DHT22;6418;50.824;4.718;2024-02-26T04:44:40;5.90;99.90
12708;DHT22;6418;50.824;4.718;2024-02-26T04:47:07;5.90;99.90
12708;DHT22;6418;50.824;4.718;2024-02-26T04:49:34;5.90;99.90
12708;DHT22;6418;50.824;4.718;2024-02-26T04:52:01;5.90;99.90
12708;DHT22;6418;50.824;4.718;2024-02-26T04:54:28;5.90;99.90
12708;DHT22;6418;50.824;4.718;2024-02-26T04:56:56;5.90;99.90
12708;DHT22;6418;50.824;4.718;2024-02-26T04:59:23;5.90;99.90
12708;DHT22;6418;50.824;4.718;2024-02-26T05:01:50;5.90;99.90
12708;DHT22;6418;50.824;4.718;2024-02-26T05:04:18;5.90;99.90
12708;DHT22;6418;50.824;4.718;2024-02-26T05:06:45;5.90;99.90
12708;DHT22;6418;50.824;4.718;2024-02-26T05:09:12;5.90;99.90
12708;DHT22;6418;50.824;4.718;2024-02-26T05:11:39;5.90;99.90
12708;DHT22;6418;50.824;4.718;2024-02-26T05:14:08;5.90;99.90
12708;DHT22;6418;50.824;4.718;2024-02-26T05:16:34;5.90;99.90
12708;DHT22;6418;50.824;4.718;2024-02-26T05:19:01;5.90;99.90
12708;DHT22;6418;50.824;4.718;2024-02-26T05:21:28;5.90;99.90
12708;DHT22;6418;50.824;4.718;2024-02-26T05:23:55;5.90;99.90
12708;DHT22;6418;50.824;4.718;2024-02-26T05:26:22;5.90;99.90
12708;DHT22;6418;50.824;4.718;2024-02-26T05:28:50;5.90;99.90
12708;DHT22;6418;50.824;4.718;2024-02-26T05:31:18;5.90;99.90
12708;DHT22;6418;50.824;4.718;2024-02-26T05:33:45;5.90;99.90
12708;DHT22;6418;50.824;4.718;2024-02-26T05:36:18;5.90;99.90
12708;DHT22;6418;50.824;4.718;2024-02-26T05:38:45;5.80;99.90
12708;DHT22;6418;50.824;4.718;2024-02-26T05:41:12;5.90;99.90
12708;DHT22;6418;50.824;4.718;2024-02-26T05:43:39;5.90;99.90
12708;DHT22;6418;50.824;4.718;2024-02-26T05:46:06;5.90;99.90
12708;DHT22;6418;50.824;4.718;2024-02-26T05:48:34;5.90;99.90
12708;DHT22;6418;50.824;4.718;2024-02-26T05:51:01;5.90;99.90
12708;DHT22;6418;50.824;4.718;2024-02-26T05:53:28;5.80;99.90
12708;DHT22;6418;50.824;4.718;2024-02-26T05:55:55;5.90;99.90
12708;DHT22;6418;50.824;4.718;2024-02-26T05:58:22;5.90;99.90
12708;DHT22;6418;50.824;4.718;2024-02-26T06:00:49;5.80;99.90
12708;DHT22;6418;50.824;4.718;2024-02-26T06:03:16;5.90;99.90
12708;DHT22;6418;50.824;4.718;2024-02-26T06:05:44;5.90;99.90
12708;DHT22;6418;50.824;4.718;2024-02-26T06:08:11;5.90;99.90
12708;DHT22;6418;50.824;4.718;2024-02-26T06:10:38;5.80;99.90
12708;DHT22;6418;50.824;4.718;2024-02-26T06:13:05;5.80;99.90
12708;DHT22;6418;50.824;4.718;2024-02-26T06:15:32;5.80;99.90
12708;DHT22;6418;50.824;4.718;2024-02-26T06:17:59;5.80;99.90
12708;DHT22;6418;50.824;4.718;2024-02-26T06:20:26;5.90;99.90
12708;DHT22;6418;50.824;4.718;2024-02-26T06:22:55;5.90;99.90
12708;DHT22;6418;50.824;4.718;2024-02-26T06:25:21;5.80;99.90
12708;DHT22;6418;50.824;4.718;2024-02-26T06:27:48;5.80;99.90
12708;DHT22;6418;50.824;4.718;2024-02-26T06:30:15;5.90;99.90
12708;DHT22;6418;50.824;4.718;2024-02-26T06:32:42;5.80;99.90
12708;DHT22;6418;50.824;4.718;2024-02-26T06:35:09;5.80;99.90
12708;DHT22;6418;50.824;4.718;2024-02-26T06:37:37;5.70;99.90
12708;DHT22;6418;50.824;4.718;2024-02-26T06:40:06;5.80;99.90
12708;DHT22;6418;50.824;4.718;2024-02-26T06:42:34;5.80;99.90
12708;DHT22;6418;50.824;4.718;2024-02-26T06:45:01;5.80;99.90
12708;DHT22;6418;50.824;4.718;2024-02-26T06:47:29;5.80;99.90
12708;DHT22;6418;50.824;4.718;2024-02-26T06:49:56;5.80;99.90
12708;DHT22;6418;50.824;4.718;2024-02-26T06:52:24;5.70;99.90
12708;DHT22;6418;50.824;4.718;2024-02-26T06:54:51;5.80;99.90
12708;DHT22;6418;50.824;4.718;2024-02-26T06:57:20;5.70;99.90
12708;DHT22;6418;50.824;4.718;2024-02-26T06:59:47;5.70;99.90
12708;DHT22;6418;50.824;4.718;2024-02-26T07:02:14;5.70;99.90
12708;DHT22;6418;50.824;4.718;2024-02-26T07:04:41;5.70;99.90
12708;DHT22;6418;50.824;4.718;2024-02-26T07:07:08;5.70;99.90
12708;DHT22;6418;50.824;4.718;2024-02-26T07:09:36;5.70;99.90
12708;DHT22;6418;50.824;4.718;2024-02-26T07:12:03;5.70;99.90
12708;DHT22;6418;50.824;4.718;2024-02-26T07:14:31;5.70;99.90
12708;DHT22;6418;50.824;4.718;2024-02-26T07:16:59;5.70;99.90
12708;DHT22;6418;50.824;4.718;2024-02-26T07:19:26;5.70;99.90
12708;DHT22;6418;50.824;4.718;2024-02-26T07:21:53;5.70;99.90
12708;DHT22;6418;50.824;4.718;2024-02-26T07:24:20;5.70;99.90
12708;DHT22;6418;50.824;4.718;2024-02-26T07:26:47;5.70;99.90
12708;DHT22;6418;50.824;4.718;2024-02-26T07:29:14;5.70;99.90
12708;DHT22;6418;50.824;4.718;2024-02-26T07:31:42;5.70;99.90
12708;DHT22;6418;50.824;4.718;2024-02-26T07:34:09;5.70;99.90
12708;DHT22;6418;50.824;4.718;2024-02-26T07:36:36;5.70;99.90
12708;DHT22;6418;50.824;4.718;2024-02-26T07:39:03;5.70;99.90
12708;DHT22;6418;50.824;4.718;2024-02-26T07:41:30;5.60;99.90
12708;DHT22;6418;50.824;4.718;2024-02-26T07:43:57;5.60;99.90
12708;DHT22;6418;50.824;4.718;2024-02-26T07:46:24;5.70;99.90
12708;DHT22;6418;50.824;4.718;2024-02-26T07:48:53;5.70;99.90
12708;DHT22;6418;50.824;4.718;2024-02-26T07:51:20;5.60;99.90
12708;DHT22;6418;50.824;4.718;2024-02-26T07:53:48;5.60;99.90
12708;DHT22;6418;50.824;4.718;2024-02-26T07:56:14;5.60;99.90
12708;DHT22;6418;50.824;4.718;2024-02-26T07:58:42;5.60;99.90
12708;DHT22;6418;50.824;4.718;2024-02-26T08:01:08;5.60;99.90
12708;DHT22;6418;50.824;4.718;2024-02-26T08:03:37;5.60;99.90
12708;DHT22;6418;50.824;4.718;2024-02-26T08:06:05;5.60;99.90
12708;DHT22;6418;50.824;4.718;2024-02-26T08:08:32;5.60;99.90
12708;DHT22;6418;50.824;4.718;2024-02-26T08:10:59;5.60;99.90
12708;DHT22;6418;50.824;4.718;2024-02-26T08:13:26;5.60;99.90
12708;DHT22;6418;50.824;4.718;2024-02-26T08:15:53;5.60;99.90
12708;DHT22;6418;50.824;4.718;2024-02-26T08:18:20;5.60;99.90
12708;DHT22;6418;50.824;4.718;2024-02-26T08:20:47;5.60;99.90
12708;DHT22;6418;50.824;4.718;2024-02-26T08:23:16;5.70;99.90
12708;DHT22;6418;50.824;4.718;2024-02-26T08:25:43;5.60;99.90
12708;DHT22;6418;50.824;4.718;2024-02-26T08:28:10;5.60;99.90
12708;DHT22;6418;50.824;4.718;2024-02-26T08:30:38;5.60;99.90
12708;DHT22;6418;50.824;4.718;2024-02-26T08:33:05;5.60;99.90
12708;DHT22;6418;50.824;4.718;2024-02-26T08:35:32;5.70;99.90
12708;DHT22;6418;50.824;4.718;2024-02-26T08:37:59;5.70;99.90
12708;DHT22;6418;50.824;4.718;2024-02-26T08:40:27;5.70;99.90
12708;DHT22;6418;50.824;4.718;2024-02-26T08:42:54;5.60;99.90
12708;DHT22;6418;50.824;4.718;2024-02-26T08:45:22;5.70;99.90
12708;DHT22;6418;50.824;4.718;2024-02-26T08:47:48;5.70;99.90
12708;DHT22;6418;50.824;4.718;2024-02-26T08:50:15;5.70;99.90
12708;DHT22;6418;50.824;4.718;2024-02-26T08:52:42;5.70;99.90
12708;DHT22;6418;50.824;4.718;2024-02-26T08:55:09;5.70;99.90
12708;DHT22;6418;50.824;4.718;2024-02-26T08:57:37;5.70;99.90
12708;DHT22;6418;50.824;4.718;2024-02-26T09:00:05;5.80;99.90
12708;DHT22;6418;50.824;4.718;2024-02-26T09:02:32;5.80;99.90
12708;DHT22;6418;50.824;4.718;2024-02-26T09:04:59;5.80;99.90
12708;DHT22;6418;50.824;4.718;2024-02-26T09:07:26;5.80;99.90
12708;DHT22;6418;50.824;4.718;2024-02-26T09:09:54;5.80;99.90
12708;DHT22;6418;50.824;4.718;2024-02-26T09:12:21;5.70;99.90
12708;DHT22;6418;50.824;4.718;2024-02-26T09:14:49;5.70;99.90
12708;DHT22;6418;50.824;4.718;2024-02-26T09:17:16;5.80;99.90
12708;DHT22;6418;50.824;4.718;2024-02-26T09:19:43;5.70;99.90
12708;DHT22;6418;50.824;4.718;2024-02-26T09:22:10;5.80;99.90
12708;DHT22;6418;50.824;4.718;2024-02-26T09:24:37;5.80;99.90
12708;DHT22;6418;50.824;4.718;2024-02-26T09:27:04;5.70;99.90
12708;DHT22;6418;50.824;4.718;2024-02-26T09:29:31;5.70;99.90
12708;DHT22;6418;50.824;4.718;2024-02-26T09:32:00;5.70;99.90
12708;DHT22;6418;50.824;4.718;2024-02-26T09:34:27;5.70;99.90
12708;DHT22;6418;50.824;4.718;2024-02-26T09:36:54;5.70;99.90
12708;DHT22;6418;50.824;4.718;2024-02-26T09:39:20;5.70;99.90
12708;DHT22;6418;50.824;4.718;2024-02-26T09:41:48;5.70;99.90
12708;DHT22;6418;50.824;4.718;2024-02-26T09:44:18;5.60;99.90
12708;DHT22;6418;50.824;4.718;2024-02-26T09:46:47;5.70;99.90
12708;DHT22;6418;50.824;4.718;2024-02-26T09:49:17;5.70;99.90
12708;DHT22;6418;50.824;4.718;2024-02-26T09:51:45;5.70;99.90
12708;DHT22;6418;50.824;4.718;2024-02-26T09:54:14;5.70;99.90
12708;DHT22;6418;50.824;4.718;2024-02-26T09:56:43;5.70;99.90
12708;DHT22;6418;50.824;4.718;2024-02-26T09:59:16;5.70;99.90
12708;DHT22;6418;50.824;4.718;2024-02-26T10:01:44;5.70;99.90
12708;DHT22;6418;50.824;4.718;2024-02-26T10:04:12;5.70;99.90
12708;DHT22;6418;50.824;4.718;2024-02-26T10:06:41;5.60;99.90
12708;DHT22;6418;50.824;4.718;2024-02-26T10:09:10;5.70;99.90
12708;DHT22;6418;50.824;4.718;2024-02-26T10:11:38;5.70;99.90
12708;DHT22;6418;50.824;4.718;2024-02-26T10:14:08;5.70;99.90
12708;DHT22;6418;50.824;4.718;2024-02-26T10:16:35;5.80;99.90
12708;DHT22;6418;50.824;4.718;2024-02-26T10:19:03;5.70;99.90
12708;DHT22;6418;50.824;4.718;2024-02-26T10:21:29;5.80;99.90
12708;DHT22;6418;50.824;4.718;2024-02-26T10:23:58;5.80;99.90
12708;DHT22;6418;50.824;4.718;2024-02-26T10:26:25;5.80;99.90
12708;DHT22;6418;50.824;4.718;2024-02-26T10:28:59;5.80;99.90
12708;DHT22;6418;50.824;4.718;2024-02-26T10:31:27;5.70;99.90
12708;DHT22;6418;50.824;4.718;2024-02-26T10:33:55;5.80;99.90
12708;DHT22;6418;50.824;4.718;2024-02-26T10:36:22;5.80;99.90
12708;DHT22;6418;50.824;4.718;2024-02-26T10:38:49;5.70;99.90
12708;DHT22;6418;50.824;4.718;2024-02-26T10:41:17;5.70;99.90
12708;DHT22;6418;50.824;4.718;2024-02-26T10:43:44;5.70;99.90
12708;DHT22;6418;50.824;4.718;2024-02-26T10:46:11;5.70;99.90
12708;DHT22;6418;50.824;4.718;2024-02-26T10:48:38;5.70;99.90
12708;DHT22;6418;50.824;4.718;2024-02-26T10:51:05;5.70;99.90
12708;DHT22;6418;50.824;4.718;2024-02-26T10:53:33;5.80;99.90
12708;DHT22;6418;50.824;4.718;2024-02-26T10:56:04;5.70;99.90
12708;DHT22;6418;50.824;4.718;2024-02-26T10:58:33;5.70;99.90
12708;DHT22;6418;50.824;4.718;2024-02-26T11:01:01;5.70;99.90
12708;DHT22;6418;50.824;4.718;2024-02-26T11:03:31;5.70;99.90
12708;DHT22;6418;50.824;4.718;2024-02-26T11:06:01;5.70;99.90
12708;DHT22;6418;50.824;4.718;2024-02-26T11:08:28;5.70;99.90
12708;DHT22;6418;50.824;4.718;2024-02-26T11:10:57;5.70;99.90
12708;DHT22;6418;50.824;4.718;2024-02-26T11:13:28;5.70;99.90
12708;DHT22;6418;50.824;4.718;2024-02-26T11:15:58;5.70;99.90
12708;DHT22;6418;50.824;4.718;2024-02-26T11:18:27;5.70;99.90
12708;DHT22;6418;50.824;4.718;2024-02-26T11:20:54;5.60;99.90
12708;DHT22;6418;50.824;4.718;2024-02-26T11:23:23;5.60;99.90
12708;DHT22;6418;50.824;4.718;2024-02-26T11:25:51;5.60;99.90
12708;DHT22;6418;50.824;4.718;2024-02-26T11:28:19;5.60;99.90
12708;DHT22;6418;50.824;4.718;2024-02-26T11:30:48;5.60;99.90
12708;DHT22;6418;50.824;4.718;2024-02-26T11:33:17;5.60;99.90
12708;DHT22;6418;50.824;4.718;2024-02-26T11:35:45;5.60;99.90
12708;DHT22;6418;50.824;4.718;2024-02-26T11:38:17;5.50;99.90
12708;DHT22;6418;50.824;4.718;2024-02-26T11:40:46;5.50;99.90
12708;DHT22;6418;50.824;4.718;2024-02-26T11:43:14;5.50;99.90
12708;DHT22;6418;50.824;4.718;2024-02-26T11:45:50;5.50;99.90
12708;DHT22;6418;50.824;4.718;2024-02-26T11:48:22;5.50;99.90
12708;DHT22;6418;50.824;4.718;2024-02-26T11:50:50;5.50;99.90
12708;DHT22;6418;50.824;4.718;2024-02-26T11:53:26;5.50;99.90
12708;DHT22;6418;50.824;4.718;2024-02-26T11:56:26;5.40;99.90
12708;DHT22;6418;50.824;4.718;2024-02-26T11:59:01;5.50;99.90
12708;DHT22;6418;50.824;4.718;2024-02-26T12:01:42;5.50;99.90
12708;DHT22;6418;50.824;4.718;2024-02-26T12:04:14;5.50;99.90
12708;DHT22;6418;50.824;4.718;2024-02-26T12:06:44;5.50;99.90
12708;DHT22;6418;50.824;4.718;2024-02-26T12:09:11;5.50;99.90
12708;DHT22;6418;50.824;4.718;2024-02-26T12:11:40;5.50;99.90
12708;DHT22;6418;50.824;4.718;2024-02-26T12:14:09;5.50;99.90
12708;DHT22;6418;50.824;4.718;2024-02-26T12:16:36;5.50;99.90
12708;DHT22;6418;50.824;4.718;2024-02-26T12:19:05;5.50;99.90
12708;DHT22;6418;50.824;4.718;2024-02-26T12:21:35;5.50;99.90
12708;DHT22;6418;50.824;4.718;2024-02-26T12:24:12;5.60;99.90
12708;DHT22;6418;50.824;4.718;2024-02-26T12:26:40;5.50;99.90
12708;DHT22;6418;50.824;4.718;2024-02-26T12:29:07;5.60;99.90
12708;DHT22;6418;50.824;4.718;2024-02-26T12:31:35;5.60;99.90
12708;DHT22;6418;50.824;4.718;2024-02-26T12:34:04;5.60;99.90
12708;DHT22;6418;50.824;4.718;2024-02-26T12:36:32;5.60;99.90
12708;DHT22;6418;50.824;4.718;2024-02-26T12:39:01;5.60;99.90
12708;DHT22;6418;50.824;4.718;2024-02-26T12:41:31;5.60;99.90
12708;DHT22;6418;50.824;4.718;2024-02-26T12:43:59;5.60;99.90
12708;DHT22;6418;50.824;4.718;2024-02-26T12:46:26;5.60;99.90
12708;DHT22;6418;50.824;4.718;2024-02-26T12:48:55;5.70;99.90
12708;DHT22;6418;50.824;4.718;2024-02-26T12:51:24;5.60;99.90
12708;DHT22;6418;50.824;4.718;2024-02-26T12:53:51;5.60;99.90
12708;DHT22;6418;50.824;4.718;2024-02-26T12:56:21;5.60;99.90
12708;DHT22;6418;50.824;4.718;2024-02-26T12:58:49;5.60;99.90
12708;DHT22;6418;50.824;4.718;2024-02-26T13:01:19;5.60;99.90
12708;DHT22;6418;50.824;4.718;2024-02-26T13:03:47;5.60;99.90
12708;DHT22;6418;50.824;4.718;2024-02-26T13:06:14;5.60;99.90
12708;DHT22;6418;50.824;4.718;2024-02-26T13:08:41;5.60;99.90
12708;DHT22;6418;50.824;4.718;2024-02-26T13:11:08;5.60;99.90
12708;DHT22;6418;50.824;4.718;2024-02-26T13:13:36;5.60;99.90
12708;DHT22;6418;50.824;4.718;2024-02-26T13:16:04;5.60;99.90
12708;DHT22;6418;50.824;4.718;2024-02-26T13:18:33;5.60;99.90
12708;DHT22;6418;50.824;4.718;2024-02-26T13:21:09;5.60;99.90
12708;DHT22;6418;50.824;4.718;2024-02-26T13:23:36;5.70;99.90
12708;DHT22;6418;50.824;4.718;2024-02-26T13:26:04;5.60;99.90
12708;DHT22;6418;50.824;4.718;2024-02-26T13:28:31;5.60;99.90
12708;DHT22;6418;50.824;4.718;2024-02-26T13:31:02;5.70;99.90
12708;DHT22;6418;50.824;4.718;2024-02-26T13:33:33;5.70;99.90
12708;DHT22;6418;50.824;4.718;2024-02-26T13:36:01;5.70;99.90
12708;DHT22;6418;50.824;4.718;2024-02-26T13:38:28;5.60;99.90
12708;DHT22;6418;50.824;4.718;2024-02-26T13:40:55;5.70;99.90
12708;DHT22;6418;50.824;4.718;2024-02-26T13:43:22;5.70;99.90
12708;DHT22;6418;50.824;4.718;2024-02-26T13:45:49;5.70;99.90
12708;DHT22;6418;50.824;4.718;2024-02-26T13:48:18;5.70;99.90
12708;DHT22;6418;50.824;4.718;2024-02-26T13:50:45;5.60;99.90
12708;DHT22;6418;50.824;4.718;2024-02-26T13:53:12;5.70;99.90
12708;DHT22;6418;50.824;4.718;2024-02-26T13:55:40;5.70;99.90
12708;DHT22;6418;50.824;4.718;2024-02-26T13:58:08;5.60;99.90
12708;DHT22;6418;50.824;4.718;2024-02-26T14:00:37;5.70;99.90
12708;DHT22;6418;50.824;4.718;2024-02-26T14:03:04;5.70;99.90
12708;DHT22;6418;50.824;4.718;2024-02-26T14:05:33;5.70;99.90
12708;DHT22;6418;50.824;4.718;2024-02-26T14:08:00;5.60;99.90
12708;DHT22;6418;50.824;4.718;2024-02-26T14:10:26;5.70;99.90
12708;DHT22;6418;50.824;4.718;2024-02-26T14:12:54;5.60;99.90
12708;DHT22;6418;50.824;4.718;2024-02-26T14:15:20;5.60;99.90
12708;DHT22;6418;50.824;4.718;2024-02-26T14:17:47;5.70;99.90
12708;DHT22;6418;50.824;4.718;2024-02-26T14:20:20;5.60;99.90
12708;DHT22;6418;50.824;4.718;2024-02-26T14:22:48;5.60;99.90
12708;DHT22;6418;50.824;4.718;2024-02-26T14:25:16;5.50;99.90
12708;DHT22;6418;50.824;4.718;2024-02-26T14:27:43;5.60;99.90
12708;DHT22;6418;50.824;4.718;2024-02-26T14:30:11;5.50;99.90
12708;DHT22;6418;50.824;4.718;2024-02-26T14:32:38;5.50;99.90
12708;DHT22;6418;50.824;4.718;2024-02-26T14:35:06;5.60;99.90
12708;DHT22;6418;50.824;4.718;2024-02-26T14:37:34;5.50;99.90
12708;DHT22;6418;50.824;4.718;2024-02-26T14:40:03;5.60;99.90
12708;DHT22;6418;50.824;4.718;2024-02-26T14:42:30;5.50;99.90
12708;DHT22;6418;50.824;4.718;2024-02-26T14:44:57;5.50;99.90
12708;DHT22;6418;50.824;4.718;2024-02-26T14:47:25;5.50;99.90
12708;DHT22;6418;50.824;4.718;2024-02-26T14:49:52;5.50;99.90
12708;DHT22;6418;50.824;4.718;2024-02-26T14:52:19;5.50;99.90
12708;DHT22;6418;50.824;4.718;2024-02-26T14:54:46;5.50;99.90
12708;DHT22;6418;50.824;4.718;2024-02-26T14:57:15;5.50;99.90
12708;DHT22;6418;50.824;4.718;2024-02-26T14:59:42;5.50;99.90
12708;DHT22;6418;50.824;4.718;2024-02-26T15:02:09;5.40;99.90
12708;DHT22;6418;50.824;4.718;2024-02-26T15:04:36;5.50;99.90
12708;DHT22;6418;50.824;4.718;2024-02-26T15:07:04;5.50;99.90
12708;DHT22;6418;50.824;4.718;2024-02-26T15:09:31;5.60;99.90
12708;DHT22;6418;50.824;4.718;2024-02-26T15:11:58;5.50;99.90
12708;DHT22;6418;50.824;4.718;2024-02-26T15:14:26;5.50;99.90
12708;DHT22;6418;50.824;4.718;2024-02-26T15:16:53;5.50;99.90
12708;DHT22;6418;50.824;4.718;2024-02-26T15:19:20;5.60;99.90
12708;DHT22;6418;50.824;4.718;2024-02-26T15:21:47;5.60;99.90
12708;DHT22;6418;50.824;4.718;2024-02-26T15:24:14;5.60;99.90
12708;DHT22;6418;50.824;4.718;2024-02-26T15:26:43;5.60;99.90
12708;DHT22;6418;50.824;4.718;2024-02-26T15:29:10;5.60;99.90
12708;DHT22;6418;50.824;4.718;2024-02-26T15:31:38;5.50;99.90
12708;DHT22;6418;50.824;4.718;2024-02-26T15:34:05;5.60;99.90
12708;DHT22;6418;50.824;4.718;2024-02-26T15:36:33;5.50;99.90
12708;DHT22;6418;50.824;4.718;2024-02-26T15:39:00;5.60;99.90
12708;DHT22;6418;50.824;4.718;2024-02-26T15:41:28;5.60;99.90
12708;DHT22;6418;50.824;4.718;2024-02-26T15:43:55;5.50;99.90
12708;DHT22;6418;50.824;4.718;2024-02-26T15:46:22;5.60;99.90
12708;DHT22;6418;50.824;4.718;2024-02-26T15:48:50;5.60;99.90
12708;DHT22;6418;50.824;4.718;2024-02-26T15:51:21;5.50;99.90
12708;DHT22;6418;50.824;4.718;2024-02-26T15:53:48;5.50;99.90
12708;DHT22;6418;50.824;4.718;2024-02-26T15:56:16;5.60;99.90
12708;DHT22;6418;50.824;4.718;2024-02-26T15:58:43;5.60;99.90
12708;DHT22;6418;50.824;4.718;2024-02-26T16:01:10;5.60;99.90
12708;DHT22;6418;50.824;4.718;2024-02-26T16:03:38;5.60;99.90
12708;DHT22;6418;50.824;4.718;2024-02-26T16:06:07;5.60;99.90